sensor_id;sensor_type;location;lat;lon;timestamp;temperature;humidity
26621;DHT22;14253;44.840;10.444;2023-03-31T00:01:33;11.00;99.90
26621;DHT22;14253;44.840;10.444;2023-03-31T00:04:00;11.10;99.90
26621;DHT22;14253;44.840;10.444;2023-03-31T00:06:35;11.10;99.90
26621;DHT22;14253;44.840;10.444;2023-03-31T00:09:08;11.10;99.90
26621;DHT22;14253;44.840;10.444;2023-03-31T00:11:34;11.20;99.90
26621;DHT22;14253;44.840;10.444;2023-03-31T00:14:00;11.20;99.90
26621;DHT22;14253;44.840;10.444;2023-03-31T00:16:26;11.20;99.90
26621;DHT22;14253;44.840;10.444;2023-03-31T00:18:52;11.20;99.90
26621;DHT22;14253;44.840;10.444;2023-03-31T00:21:23;11.20;99.90
26621;DHT22;14253;44.840;10.444;2023-03-31T00:23:56;11.20;99.90
26621;DHT22;14253;44.840;10.444;2023-03-31T00:26:23;11.10;99.90
26621;DHT22;14253;44.840;10.444;2023-03-31T00:28:49;11.10;99.90
26621;DHT22;14253;44.840;10.444;2023-03-31T00:31:15;11.10;99.90
26621;DHT22;14253;44.840;10.444;2023-03-31T00:33:41;11.00;99.90
26621;DHT22;14253;44.840;10.444;2023-03-31T00:36:07;11.00;99.90
26621;DHT22;14253;44.840;10.444;2023-03-31T00:38:33;11.10;99.90
26621;DHT22;14253;44.840;10.444;2023-03-31T00:41:00;11.00;99.90
26621;DHT22;14253;44.840;10.444;2023-03-31T00:43:35;11.00;99.90
26621;DHT22;14253;44.840;10.444;2023-03-31T00:48:33;11.00;99.90
26621;DHT22;14253;44.840;10.444;2023-03-31T00:51:04;11.00;99.90
26621;DHT22;14253;44.840;10.444;2023-03-31T00:53:33;10.80;99.90
26621;DHT22;14253;44.840;10.444;2023-03-31T00:56:05;10.70;99.90
26621;DHT22;14253;44.840;10.444;2023-03-31T00:58:33;10.70;99.90
26621;DHT22;14253;44.840;10.444;2023-03-31T01:01:01;10.70;99.90
26621;DHT22;14253;44.840;10.444;2023-03-31T01:03:30;10.60;99.90
26621;DHT22;14253;44.840;10.444;2023-03-31T01:06:03;10.60;99.90
26621;DHT22;14253;44.840;10.444;2023-03-31T01:08:31;10.60;99.90
26621;DHT22;14253;44.840;10.444;2023-03-31T01:10:59;10.70;99.90
26621;DHT22;14253;44.840;10.444;2023-03-31T01:13:28;10.60;99.90
26621;DHT22;14253;44.840;10.444;2023-03-31T01:15:54;10.40;99.90
26621;DHT22;14253;44.840;10.444;2023-03-31T01:18:21;10.40;99.90
26621;DHT22;14253;44.840;10.444;2023-03-31T01:24:13;10.20;99.90
26621;DHT22;14253;44.840;10.444;2023-03-31T01:41:23;10.20;99.90
26621;DHT22;14253;44.840;10.444;2023-03-31T01:43:45;10.20;99.90
26621;DHT22;14253;44.840;10.444;2023-03-31T01:52:03;10.20;99.90
26621;DHT22;14253;44.840;10.444;2023-03-31T01:55:05;10.20;99.90
26621;DHT22;14253;44.840;10.444;2023-03-31T01:57:36;10.20;99.90
26621;DHT22;14253;44.840;10.444;2023-03-31T02:00:10;10.10;99.90
26621;DHT22;14253;44.840;10.444;2023-03-31T02:02:47;10.10;99.90
26621;DHT22;14253;44.840;10.444;2023-03-31T02:05:26;10.00;99.90
26621;DHT22;14253;44.840;10.444;2023-03-31T02:07:55;10.00;99.90
26621;DHT22;14253;44.840;10.444;2023-03-31T02:10:24;10.00;99.90
26621;DHT22;14253;44.840;10.444;2023-03-31T02:12:52;9.90;99.90
26621;DHT22;14253;44.840;10.444;2023-03-31T02:15:28;9.90;99.90
26621;DHT22;14253;44.840;10.444;2023-03-31T02:17:57;9.90;99.90
26621;DHT22;14253;44.840;10.444;2023-03-31T02:20:26;9.90;99.90
26621;DHT22;14253;44.840;10.444;2023-03-31T02:22:54;9.80;99.90
26621;DHT22;14253;44.840;10.444;2023-03-31T02:25:52;9.70;99.90
26621;DHT22;14253;44.840;10.444;2023-03-31T02:28:25;9.50;99.90
26621;DHT22;14253;44.840;10.444;2023-03-31T02:33:30;9.30;99.90
26621;DHT22;14253;44.840;10.444;2023-03-31T02:35:58;9.20;99.90
26621;DHT22;14253;44.840;10.444;2023-03-31T02:38:24;9.20;99.90
26621;DHT22;14253;44.840;10.444;2023-03-31T02:40:50;9.10;99.90
26621;DHT22;14253;44.840;10.444;2023-03-31T02:43:16;9.10;99.90
26621;DHT22;14253;44.840;10.444;2023-03-31T02:45:48;9.10;99.90
26621;DHT22;14253;44.840;10.444;2023-03-31T02:48:25;9.10;99.90
26621;DHT22;14253;44.840;10.444;2023-03-31T02:56:58;9.10;99.90
26621;DHT22;14253;44.840;10.444;2023-03-31T03:08:51;9.20;99.90
26621;DHT22;14253;44.840;10.444;2023-03-31T03:14:27;9.40;99.90
26621;DHT22;14253;44.840;10.444;2023-03-31T03:17:11;9.30;99.90
26621;DHT22;14253;44.840;10.444;2023-03-31T03:19:40;8.80;99.90
26621;DHT22;14253;44.840;10.444;2023-03-31T03:22:07;8.50;99.90
26621;DHT22;14253;44.840;10.444;2023-03-31T03:24:33;8.50;99.90
26621;DHT22;14253;44.840;10.444;2023-03-31T03:26:59;8.40;99.90
26621;DHT22;14253;44.840;10.444;2023-03-31T03:29:25;8.40;99.90
26621;DHT22;14253;44.840;10.444;2023-03-31T03:31:52;8.30;99.90
26621;DHT22;14253;44.840;10.444;2023-03-31T03:34:18;8.30;99.90
26621;DHT22;14253;44.840;10.444;2023-03-31T03:36:45;8.40;99.90
26621;DHT22;14253;44.840;10.444;2023-03-31T03:39:11;8.40;99.90
26621;DHT22;14253;44.840;10.444;2023-03-31T03:41:37;8.40;99.90
26621;DHT22;14253;44.840;10.444;2023-03-31T03:44:04;8.40;99.90
26621;DHT22;14253;44.840;10.444;2023-03-31T03:46:29;8.40;99.90
26621;DHT22;14253;44.840;10.444;2023-03-31T03:48:55;8.40;99.90
26621;DHT22;14253;44.840;10.444;2023-03-31T03:51:22;8.40;99.90
26621;DHT22;14253;44.840;10.444;2023-03-31T03:53:48;8.40;99.90
26621;DHT22;14253;44.840;10.444;2023-03-31T03:56:14;8.30;99.90
26621;DHT22;14253;44.840;10.444;2023-03-31T03:58:39;8.30;99.90
26621;DHT22;14253;44.840;10.444;2023-03-31T04:01:05;8.40;99.90
26621;DHT22;14253;44.840;10.444;2023-03-31T04:03:31;8.30;99.90
26621;DHT22;14253;44.840;10.444;2023-03-31T04:05:57;8.30;99.90
26621;DHT22;14253;44.840;10.444;2023-03-31T04:08:23;8.30;99.90
26621;DHT22;14253;44.840;10.444;2023-03-31T04:10:50;8.40;99.90
26621;DHT22;14253;44.840;10.444;2023-03-31T04:13:17;8.60;99.90
26621;DHT22;14253;44.840;10.444;2023-03-31T04:15:43;8.70;99.90
26621;DHT22;14253;44.840;10.444;2023-03-31T04:18:10;8.70;99.90
26621;DHT22;14253;44.840;10.444;2023-03-31T04:20:49;8.50;99.90
26621;DHT22;14253;44.840;10.444;2023-03-31T04:23:32;8.40;99.90
26621;DHT22;14253;44.840;10.444;2023-03-31T04:25:58;8.00;99.90
26621;DHT22;14253;44.840;10.444;2023-03-31T04:28:24;8.00;99.90
26621;DHT22;14253;44.840;10.444;2023-03-31T04:30:53;8.00;99.90
26621;DHT22;14253;44.840;10.444;2023-03-31T04:33:19;8.10;99.90
26621;DHT22;14253;44.840;10.444;2023-03-31T04:35:46;8.10;99.90
26621;DHT22;14253;44.840;10.444;2023-03-31T04:38:16;8.30;99.90
26621;DHT22;14253;44.840;10.444;2023-03-31T04:40:57;8.30;99.90
26621;DHT22;14253;44.840;10.444;2023-03-31T04:43:40;8.40;99.90
26621;DHT22;14253;44.840;10.444;2023-03-31T04:46:19;8.50;99.90
26621;DHT22;14253;44.840;10.444;2023-03-31T04:48:55;8.50;99.90
26621;DHT22;14253;44.840;10.444;2023-03-31T04:51:42;8.60;99.90
26621;DHT22;14253;44.840;10.444;2023-03-31T04:54:18;8.70;99.90
26621;DHT22;14253;44.840;10.444;2023-03-31T04:56:44;8.60;99.90
26621;DHT22;14253;44.840;10.444;2023-03-31T04:59:09;8.50;99.90
26621;DHT22;14253;44.840;10.444;2023-03-31T05:01:35;8.60;99.90
26621;DHT22;14253;44.840;10.444;2023-03-31T05:04:02;8.60;99.90
26621;DHT22;14253;44.840;10.444;2023-03-31T05:06:29;8.70;99.90
26621;DHT22;14253;44.840;10.444;2023-03-31T05:08:55;8.70;99.90
26621;DHT22;14253;44.840;10.444;2023-03-31T05:11:20;8.70;99.90
26621;DHT22;14253;44.840;10.444;2023-03-31T05:13:47;8.60;99.90
26621;DHT22;14253;44.840;10.444;2023-03-31T05:16:13;8.60;99.90
26621;DHT22;14253;44.840;10.444;2023-03-31T05:18:40;8.70;99.90
26621;DHT22;14253;44.840;10.444;2023-03-31T05:21:13;8.70;99.90
26621;DHT22;14253;44.840;10.444;2023-03-31T05:23:39;8.80;99.90
26621;DHT22;14253;44.840;10.444;2023-03-31T05:26:05;8.70;99.90
26621;DHT22;14253;44.840;10.444;2023-03-31T05:28:33;8.80;99.90
26621;DHT22;14253;44.840;10.444;2023-03-31T05:31:00;8.80;99.90
26621;DHT22;14253;44.840;10.444;2023-03-31T05:33:27;8.80;99.90
26621;DHT22;14253;44.840;10.444;2023-03-31T05:35:53;8.80;99.90
26621;DHT22;14253;44.840;10.444;2023-03-31T05:38:19;8.80;99.90
26621;DHT22;14253;44.840;10.444;2023-03-31T05:40:46;8.80;99.90
26621;DHT22;14253;44.840;10.444;2023-03-31T05:43:12;8.90;99.90
26621;DHT22;14253;44.840;10.444;2023-03-31T05:45:38;9.00;99.90
26621;DHT22;14253;44.840;10.444;2023-03-31T05:48:04;9.00;99.90
26621;DHT22;14253;44.840;10.444;2023-03-31T05:50:30;9.10;99.90
26621;DHT22;14253;44.840;10.444;2023-03-31T05:52:56;9.10;99.90
26621;DHT22;14253;44.840;10.444;2023-03-31T05:55:22;9.20;99.90
26621;DHT22;14253;44.840;10.444;2023-03-31T05:57:48;9.20;99.90
26621;DHT22;14253;44.840;10.444;2023-03-31T06:00:14;9.30;99.90
26621;DHT22;14253;44.840;10.444;2023-03-31T06:02:40;9.30;99.90
26621;DHT22;14253;44.840;10.444;2023-03-31T06:05:07;9.30;99.90
26621;DHT22;14253;44.840;10.444;2023-03-31T06:07:33;9.30;99.90
26621;DHT22;14253;44.840;10.444;2023-03-31T06:09:59;9.30;99.90
26621;DHT22;14253;44.840;10.444;2023-03-31T06:12:25;9.20;99.90
26621;DHT22;14253;44.840;10.444;2023-03-31T06:14:51;9.40;99.90
26621;DHT22;14253;44.840;10.444;2023-03-31T06:17:17;9.40;99.90
26621;DHT22;14253;44.840;10.444;2023-03-31T06:19:42;9.60;99.90
26621;DHT22;14253;44.840;10.444;2023-03-31T06:22:08;9.70;99.90
26621;DHT22;14253;44.840;10.444;2023-03-31T06:24:34;9.80;99.90
26621;DHT22;14253;44.840;10.444;2023-03-31T06:27:00;9.90;99.90
26621;DHT22;14253;44.840;10.444;2023-03-31T06:29:27;9.90;99.90
26621;DHT22;14253;44.840;10.444;2023-03-31T06:31:52;9.80;99.90
26621;DHT22;14253;44.840;10.444;2023-03-31T06:34:18;9.70;99.90
26621;DHT22;14253;44.840;10.444;2023-03-31T06:36:44;9.70;99.90
26621;DHT22;14253;44.840;10.444;2023-03-31T06:39:10;9.80;99.90
26621;DHT22;14253;44.840;10.444;2023-03-31T06:41:36;10.10;99.90
26621;DHT22;14253;44.840;10.444;2023-03-31T06:44:03;10.10;99.90
26621;DHT22;14253;44.840;10.444;2023-03-31T06:46:29;10.30;99.90
26621;DHT22;14253;44.840;10.444;2023-03-31T06:48:55;10.60;99.90
26621;DHT22;14253;44.840;10.444;2023-03-31T06:51:21;10.90;99.90
26621;DHT22;14253;44.840;10.444;2023-03-31T06:53:47;11.10;99.90
26621;DHT22;14253;44.840;10.444;2023-03-31T06:56:13;11.50;99.90
26621;DHT22;14253;44.840;10.444;2023-03-31T06:58:39;11.90;99.90
26621;DHT22;14253;44.840;10.444;2023-03-31T07:01:05;11.80;99.90
26621;DHT22;14253;44.840;10.444;2023-03-31T07:03:32;12.10;99.90
26621;DHT22;14253;44.840;10.444;2023-03-31T07:05:58;12.50;99.90
26621;DHT22;14253;44.840;10.444;2023-03-31T07:08:24;12.70;99.90
26621;DHT22;14253;44.840;10.444;2023-03-31T07:10:57;13.00;99.90
26621;DHT22;14253;44.840;10.444;2023-03-31T07:13:24;13.20;99.90
26621;DHT22;14253;44.840;10.444;2023-03-31T07:15:51;13.30;99.90
26621;DHT22;14253;44.840;10.444;2023-03-31T07:18:17;13.40;99.90
26621;DHT22;14253;44.840;10.444;2023-03-31T07:20:47;13.70;99.90
26621;DHT22;14253;44.840;10.444;2023-03-31T07:23:14;13.80;99.90
26621;DHT22;14253;44.840;10.444;2023-03-31T07:25:40;14.30;99.90
26621;DHT22;14253;44.840;10.444;2023-03-31T07:28:05;14.50;99.90
26621;DHT22;14253;44.840;10.444;2023-03-31T07:30:32;14.60;99.90
26621;DHT22;14253;44.840;10.444;2023-03-31T07:32:58;14.70;99.90
26621;DHT22;14253;44.840;10.444;2023-03-31T07:35:24;15.00;99.90
26621;DHT22;14253;44.840;10.444;2023-03-31T07:37:51;15.00;99.90
26621;DHT22;14253;44.840;10.444;2023-03-31T07:40:24;15.20;99.90
26621;DHT22;14253;44.840;10.444;2023-03-31T07:42:51;15.50;99.90
26621;DHT22;14253;44.840;10.444;2023-03-31T07:45:19;15.90;99.90
26621;DHT22;14253;44.840;10.444;2023-03-31T07:47:46;16.10;99.90
26621;DHT22;14253;44.840;10.444;2023-03-31T07:50:14;16.00;99.90
26621;DHT22;14253;44.840;10.444;2023-03-31T07:52:40;15.90;99.90
26621;DHT22;14253;44.840;10.444;2023-03-31T07:55:07;16.00;99.90
26621;DHT22;14253;44.840;10.444;2023-03-31T07:57:34;15.90;99.90
26621;DHT22;14253;44.840;10.444;2023-03-31T08:00:02;16.00;99.90
26621;DHT22;14253;44.840;10.444;2023-03-31T08:02:38;15.80;99.90
26621;DHT22;14253;44.840;10.444;2023-03-31T08:05:05;15.60;99.90
26621;DHT22;14253;44.840;10.444;2023-03-31T08:07:36;15.40;99.90
26621;DHT22;14253;44.840;10.444;2023-03-31T08:10:09;15.30;99.90
26621;DHT22;14253;44.840;10.444;2023-03-31T08:12:35;15.30;99.90
26621;DHT22;14253;44.840;10.444;2023-03-31T08:15:01;15.30;99.90
26621;DHT22;14253;44.840;10.444;2023-03-31T08:17:27;15.20;99.90
26621;DHT22;14253;44.840;10.444;2023-03-31T08:19:53;15.20;99.90
26621;DHT22;14253;44.840;10.444;2023-03-31T08:22:19;15.00;99.90
26621;DHT22;14253;44.840;10.444;2023-03-31T08:24:47;15.20;99.90
26621;DHT22;14253;44.840;10.444;2023-03-31T08:27:13;15.40;99.90
26621;DHT22;14253;44.840;10.444;2023-03-31T08:29:39;15.40;99.90
26621;DHT22;14253;44.840;10.444;2023-03-31T08:32:06;15.50;99.90
26621;DHT22;14253;44.840;10.444;2023-03-31T08:34:32;15.60;99.90
26621;DHT22;14253;44.840;10.444;2023-03-31T08:36:58;15.60;99.90
26621;DHT22;14253;44.840;10.444;2023-03-31T08:39:24;15.80;99.90
26621;DHT22;14253;44.840;10.444;2023-03-31T08:42:10;16.40;99.90
26621;DHT22;14253;44.840;10.444;2023-03-31T08:45:19;16.80;99.90
26621;DHT22;14253;44.840;10.444;2023-03-31T08:47:44;17.20;99.90
26621;DHT22;14253;44.840;10.444;2023-03-31T08:50:18;17.20;99.90
26621;DHT22;14253;44.840;10.444;2023-03-31T08:53:36;17.00;99.90
26621;DHT22;14253;44.840;10.444;2023-03-31T08:55:56;17.00;99.90
26621;DHT22;14253;44.840;10.444;2023-03-31T09:06:40;16.80;99.90
26621;DHT22;14253;44.840;10.444;2023-03-31T09:09:11;17.10;99.90
26621;DHT22;14253;44.840;10.444;2023-03-31T09:11:49;17.50;99.90
26621;DHT22;14253;44.840;10.444;2023-03-31T09:14:58;17.50;99.90
26621;DHT22;14253;44.840;10.444;2023-03-31T09:17:34;17.40;99.90
26621;DHT22;14253;44.840;10.444;2023-03-31T09:25:38;17.20;99.90
26621;DHT22;14253;44.840;10.444;2023-03-31T09:28:13;17.10;99.90
26621;DHT22;14253;44.840;10.444;2023-03-31T09:30:41;17.10;99.90
26621;DHT22;14253;44.840;10.444;2023-03-31T09:33:38;17.30;99.90
26621;DHT22;14253;44.840;10.444;2023-03-31T09:36:14;17.40;99.90
26621;DHT22;14253;44.840;10.444;2023-03-31T09:38:44;17.30;99.90
26621;DHT22;14253;44.840;10.444;2023-03-31T09:41:13;17.10;99.90
26621;DHT22;14253;44.840;10.444;2023-03-31T09:43:40;17.20;99.90
26621;DHT22;14253;44.840;10.444;2023-03-31T09:46:19;17.20;99.90
26621;DHT22;14253;44.840;10.444;2023-03-31T09:48:57;17.40;99.90
26621;DHT22;14253;44.840;10.444;2023-03-31T09:51:29;17.60;99.90
26621;DHT22;14253;44.840;10.444;2023-03-31T09:54:06;17.70;99.90
26621;DHT22;14253;44.840;10.444;2023-03-31T09:59:03;17.40;99.90
26621;DHT22;14253;44.840;10.444;2023-03-31T10:01:29;17.20;99.90
26621;DHT22;14253;44.840;10.444;2023-03-31T10:03:56;17.20;99.90
26621;DHT22;14253;44.840;10.444;2023-03-31T10:06:24;17.10;99.90
26621;DHT22;14253;44.840;10.444;2023-03-31T10:08:54;17.10;99.90
26621;DHT22;14253;44.840;10.444;2023-03-31T10:11:21;17.30;99.90
26621;DHT22;14253;44.840;10.444;2023-03-31T10:16:29;17.60;99.90
26621;DHT22;14253;44.840;10.444;2023-03-31T10:19:26;17.50;99.90
26621;DHT22;14253;44.840;10.444;2023-03-31T10:22:01;17.40;99.90
26621;DHT22;14253;44.840;10.444;2023-03-31T10:24:39;17.40;99.90
26621;DHT22;14253;44.840;10.444;2023-03-31T10:27:17;17.40;99.90
26621;DHT22;14253;44.840;10.444;2023-03-31T10:29:46;17.50;99.90
26621;DHT22;14253;44.840;10.444;2023-03-31T10:32:22;17.50;99.90
26621;DHT22;14253;44.840;10.444;2023-03-31T10:34:49;17.80;99.90
26621;DHT22;14253;44.840;10.444;2023-03-31T10:37:25;17.70;99.90
26621;DHT22;14253;44.840;10.444;2023-03-31T10:40:12;18.10;99.90
26621;DHT22;14253;44.840;10.444;2023-03-31T10:42:39;18.60;99.90
26621;DHT22;14253;44.840;10.444;2023-03-31T10:47:53;19.10;99.90
26621;DHT22;14253;44.840;10.444;2023-03-31T10:50:29;19.00;99.90
26621;DHT22;14253;44.840;10.444;2023-03-31T10:53:10;19.00;99.90
26621;DHT22;14253;44.840;10.444;2023-03-31T11:12:19;19.90;99.90
26621;DHT22;14253;44.840;10.444;2023-03-31T11:20:10;20.10;99.90
26621;DHT22;14253;44.840;10.444;2023-03-31T11:22:49;19.80;99.90
26621;DHT22;14253;44.840;10.444;2023-03-31T11:25:22;19.30;99.90
26621;DHT22;14253;44.840;10.444;2023-03-31T11:42:01;18.60;99.90
26621;DHT22;14253;44.840;10.444;2023-03-31T11:44:40;18.70;99.90
26621;DHT22;14253;44.840;10.444;2023-03-31T11:47:15;18.60;99.90
26621;DHT22;14253;44.840;10.444;2023-03-31T11:49:50;18.40;99.90
26621;DHT22;14253;44.840;10.444;2023-03-31T11:52:22;18.40;99.90
26621;DHT22;14253;44.840;10.444;2023-03-31T11:54:57;18.60;99.90
26621;DHT22;14253;44.840;10.444;2023-03-31T11:57:58;18.80;99.90
26621;DHT22;14253;44.840;10.444;2023-03-31T12:00:33;19.00;99.90
26621;DHT22;14253;44.840;10.444;2023-03-31T12:03:28;18.90;99.90
26621;DHT22;14253;44.840;10.444;2023-03-31T12:06:11;19.30;99.90
26621;DHT22;14253;44.840;10.444;2023-03-31T12:12:06;19.50;99.90
26621;DHT22;14253;44.840;10.444;2023-03-31T12:15:20;19.50;99.90
26621;DHT22;14253;44.840;10.444;2023-03-31T12:17:40;19.90;99.90
26621;DHT22;14253;44.840;10.444;2023-03-31T12:20:35;20.10;99.90
26621;DHT22;14253;44.840;10.444;2023-03-31T12:23:09;20.40;99.90
26621;DHT22;14253;44.840;10.444;2023-03-31T12:28:45;20.30;99.90
26621;DHT22;14253;44.840;10.444;2023-03-31T12:31:20;20.20;99.90
26621;DHT22;14253;44.840;10.444;2023-03-31T12:34:03;20.10;99.90
26621;DHT22;14253;44.840;10.444;2023-03-31T12:36:53;20.00;99.90
26621;DHT22;14253;44.840;10.444;2023-03-31T12:39:35;19.80;99.90
26621;DHT22;14253;44.840;10.444;2023-03-31T12:53:19;19.20;99.90
26621;DHT22;14253;44.840;10.444;2023-03-31T12:55:50;19.20;99.90
26621;DHT22;14253;44.840;10.444;2023-03-31T13:01:15;19.30;99.90
26621;DHT22;14253;44.840;10.444;2023-03-31T13:11:39;19.50;99.90
26621;DHT22;14253;44.840;10.444;2023-03-31T13:14:28;19.30;99.90
26621;DHT22;14253;44.840;10.444;2023-03-31T13:17:34;19.30;99.90
26621;DHT22;14253;44.840;10.444;2023-03-31T13:20:36;19.30;99.90
26621;DHT22;14253;44.840;10.444;2023-03-31T13:23:21;19.30;99.90
26621;DHT22;14253;44.840;10.444;2023-03-31T13:25:55;19.20;99.90
26621;DHT22;14253;44.840;10.444;2023-03-31T13:30:59;19.20;99.90
26621;DHT22;14253;44.840;10.444;2023-03-31T13:39:09;19.10;99.90
26621;DHT22;14253;44.840;10.444;2023-03-31T13:42:08;19.10;99.90
26621;DHT22;14253;44.840;10.444;2023-03-31T13:44:50;19.10;99.90
26621;DHT22;14253;44.840;10.444;2023-03-31T13:50:31;18.90;99.90
26621;DHT22;14253;44.840;10.444;2023-03-31T13:53:19;18.90;99.90
26621;DHT22;14253;44.840;10.444;2023-03-31T14:06:56;19.00;99.90
26621;DHT22;14253;44.840;10.444;2023-03-31T14:09:24;19.20;99.90
26621;DHT22;14253;44.840;10.444;2023-03-31T14:11:52;19.40;99.90
26621;DHT22;14253;44.840;10.444;2023-03-31T14:14:18;19.70;99.90
26621;DHT22;14253;44.840;10.444;2023-03-31T14:16:55;19.60;99.90
26621;DHT22;14253;44.840;10.444;2023-03-31T14:19:41;19.70;99.90
26621;DHT22;14253;44.840;10.444;2023-03-31T14:25:34;20.30;99.90
26621;DHT22;14253;44.840;10.444;2023-03-31T14:39:06;21.40;99.90
26621;DHT22;14253;44.840;10.444;2023-03-31T14:41:34;21.40;99.90
26621;DHT22;14253;44.840;10.444;2023-03-31T14:44:11;21.60;99.90
26621;DHT22;14253;44.840;10.444;2023-03-31T14:46:39;21.80;99.90
26621;DHT22;14253;44.840;10.444;2023-03-31T14:49:28;21.80;99.90
26621;DHT22;14253;44.840;10.444;2023-03-31T14:51:59;21.70;99.90
26621;DHT22;14253;44.840;10.444;2023-03-31T14:54:25;21.90;99.90
26621;DHT22;14253;44.840;10.444;2023-03-31T14:56:55;21.90;99.90
26621;DHT22;14253;44.840;10.444;2023-03-31T14:59:30;21.90;99.90
26621;DHT22;14253;44.840;10.444;2023-03-31T15:01:58;22.10;99.90
26621;DHT22;14253;44.840;10.444;2023-03-31T15:04:28;22.20;99.90
26621;DHT22;14253;44.840;10.444;2023-03-31T15:06:54;22.40;99.90
26621;DHT22;14253;44.840;10.444;2023-03-31T15:09:29;22.30;99.90
26621;DHT22;14253;44.840;10.444;2023-03-31T15:12:07;22.90;99.90
26621;DHT22;14253;44.840;10.444;2023-03-31T15:14:41;22.80;99.90
26621;DHT22;14253;44.840;10.444;2023-03-31T15:17:20;23.40;99.90
26621;DHT22;14253;44.840;10.444;2023-03-31T15:19:54;23.60;99.90
26621;DHT22;14253;44.840;10.444;2023-03-31T15:22:23;24.00;99.90
26621;DHT22;14253;44.840;10.444;2023-03-31T15:24:51;24.10;99.90
26621;DHT22;14253;44.840;10.444;2023-03-31T15:27:43;24.00;99.90
26621;DHT22;14253;44.840;10.444;2023-03-31T15:30:18;23.90;99.90
26621;DHT22;14253;44.840;10.444;2023-03-31T15:32:46;22.80;99.90
26621;DHT22;14253;44.840;10.444;2023-03-31T15:35:30;22.10;99.90
26621;DHT22;14253;44.840;10.444;2023-03-31T15:37:58;21.40;99.90
26621;DHT22;14253;44.840;10.444;2023-03-31T15:40:48;20.50;99.90
26621;DHT22;14253;44.840;10.444;2023-03-31T15:43:17;20.10;99.90
26621;DHT22;14253;44.840;10.444;2023-03-31T15:48:24;19.50;99.90
26621;DHT22;14253;44.840;10.444;2023-03-31T15:50:58;19.40;99.90
26621;DHT22;14253;44.840;10.444;2023-03-31T15:53:29;19.30;99.90
26621;DHT22;14253;44.840;10.444;2023-03-31T15:55:57;19.20;99.90
26621;DHT22;14253;44.840;10.444;2023-03-31T15:58:54;19.20;99.90
26621;DHT22;14253;44.840;10.444;2023-03-31T16:01:21;19.10;99.90
26621;DHT22;14253;44.840;10.444;2023-03-31T16:03:51;19.20;99.90
26621;DHT22;14253;44.840;10.444;2023-03-31T16:06:30;19.20;99.90
26621;DHT22;14253;44.840;10.444;2023-03-31T16:12:30;19.10;99.90
26621;DHT22;14253;44.840;10.444;2023-03-31T16:15:20;19.10;99.90
26621;DHT22;14253;44.840;10.444;2023-03-31T16:17:48;19.00;99.90
26621;DHT22;14253;44.840;10.444;2023-03-31T16:22:54;19.00;99.90
26621;DHT22;14253;44.840;10.444;2023-03-31T16:25:22;19.00;99.90
26621;DHT22;14253;44.840;10.444;2023-03-31T16:27:57;18.90;99.90
26621;DHT22;14253;44.840;10.444;2023-03-31T16:30:39;18.80;99.90
26621;DHT22;14253;44.840;10.444;2023-03-31T16:33:09;18.70;99.90
26621;DHT22;14253;44.840;10.444;2023-03-31T16:35:39;18.70;99.90
26621;DHT22;14253;44.840;10.444;2023-03-31T16:38:08;18.50;99.90
26621;DHT22;14253;44.840;10.444;2023-03-31T16:40:40;18.40;99.90
26621;DHT22;14253;44.840;10.444;2023-03-31T16:43:12;18.50;99.90
26621;DHT22;14253;44.840;10.444;2023-03-31T16:45:40;18.40;99.90
26621;DHT22;14253;44.840;10.444;2023-03-31T16:48:08;18.30;99.90
26621;DHT22;14253;44.840;10.444;2023-03-31T16:50:34;18.10;99.90
26621;DHT22;14253;44.840;10.444;2023-03-31T16:53:00;17.80;99.90
26621;DHT22;14253;44.840;10.444;2023-03-31T16:55:26;17.70;99.90
26621;DHT22;14253;44.840;10.444;2023-03-31T16:57:53;17.60;99.90
26621;DHT22;14253;44.840;10.444;2023-03-31T17:00:19;17.60;99.90
26621;DHT22;14253;44.840;10.444;2023-03-31T17:02:45;17.70;99.90
26621;DHT22;14253;44.840;10.444;2023-03-31T17:05:12;17.60;99.90
26621;DHT22;14253;44.840;10.444;2023-03-31T17:07:38;17.60;99.90
26621;DHT22;14253;44.840;10.444;2023-03-31T17:10:04;17.60;99.90
26621;DHT22;14253;44.840;10.444;2023-03-31T17:12:30;17.60;99.90
26621;DHT22;14253;44.840;10.444;2023-03-31T17:14:57;17.70;99.90
26621;DHT22;14253;44.840;10.444;2023-03-31T17:17:23;17.60;99.90
26621;DHT22;14253;44.840;10.444;2023-03-31T17:19:49;17.60;99.90
26621;DHT22;14253;44.840;10.444;2023-03-31T17:22:15;17.50;99.90
26621;DHT22;14253;44.840;10.444;2023-03-31T17:24:41;17.50;99.90
26621;DHT22;14253;44.840;10.444;2023-03-31T17:27:08;17.50;99.90
26621;DHT22;14253;44.840;10.444;2023-03-31T17:29:34;17.40;99.90
26621;DHT22;14253;44.840;10.444;2023-03-31T17:32:04;17.30;99.90
26621;DHT22;14253;44.840;10.444;2023-03-31T17:34:31;17.30;99.90
26621;DHT22;14253;44.840;10.444;2023-03-31T17:36:58;17.30;99.90
26621;DHT22;14253;44.840;10.444;2023-03-31T17:39:24;17.20;99.90
26621;DHT22;14253;44.840;10.444;2023-03-31T17:41:52;17.20;99.90
26621;DHT22;14253;44.840;10.444;2023-03-31T17:44:19;17.20;99.90
26621;DHT22;14253;44.840;10.444;2023-03-31T17:46:45;17.20;99.90
26621;DHT22;14253;44.840;10.444;2023-03-31T17:49:11;17.20;99.90
26621;DHT22;14253;44.840;10.444;2023-03-31T17:51:37;17.20;99.90
26621;DHT22;14253;44.840;10.444;2023-03-31T17:54:03;17.10;99.90
26621;DHT22;14253;44.840;10.444;2023-03-31T17:56:29;17.10;99.90
26621;DHT22;14253;44.840;10.444;2023-03-31T17:58:55;17.00;99.90
26621;DHT22;14253;44.840;10.444;2023-03-31T18:01:21;17.00;99.90
26621;DHT22;14253;44.840;10.444;2023-03-31T18:03:47;17.00;99.90
26621;DHT22;14253;44.840;10.444;2023-03-31T18:06:14;17.00;99.90
26621;DHT22;14253;44.840;10.444;2023-03-31T18:08:42;16.60;99.90
26621;DHT22;14253;44.840;10.444;2023-03-31T18:11:09;16.50;99.90
26621;DHT22;14253;44.840;10.444;2023-03-31T18:13:36;16.30;99.90
26621;DHT22;14253;44.840;10.444;2023-03-31T18:16:03;16.10;99.90
26621;DHT22;14253;44.840;10.444;2023-03-31T18:18:29;15.90;99.90
26621;DHT22;14253;44.840;10.444;2023-03-31T18:20:55;15.70;99.90
26621;DHT22;14253;44.840;10.444;2023-03-31T18:23:22;15.60;99.90
26621;DHT22;14253;44.840;10.444;2023-03-31T18:25:49;15.50;99.90
26621;DHT22;14253;44.840;10.444;2023-03-31T18:28:16;15.50;99.90
26621;DHT22;14253;44.840;10.444;2023-03-31T18:30:42;15.40;99.90
26621;DHT22;14253;44.840;10.444;2023-03-31T18:33:09;15.40;99.90
26621;DHT22;14253;44.840;10.444;2023-03-31T18:35:39;15.40;99.90
26621;DHT22;14253;44.840;10.444;2023-03-31T18:38:05;15.40;99.90
26621;DHT22;14253;44.840;10.444;2023-03-31T18:40:32;15.50;99.90
26621;DHT22;14253;44.840;10.444;2023-03-31T18:42:58;15.60;99.90